Terminal Aerodrome Forecast
Issued by NWS

Home | Current Version | Previous Version | Text Only | Print | Product List | Glossary On
Versions: 1 2 3 4 5 6 7 8 9 10 11 12 13 14 15 16 17 18 19 20 21 22 23 24
559
FTUS43 KAPX 130657 AAA
TAFTVC
TAF AMD
KTVC 130657Z 1307/1406 32013G20KT P6SM -SHSN OVC035
     FM130800 33013G22KT 2SM -SHSN SCT015 OVC025
      TEMPO 1308/1312 1/2SM -SHSN BLSN BKN015
     FM131200 32011G20KT 3SM -SHSN BKN025 OVC035
     FM140000 31006KT 4SM -SHSN SCT025 OVC040=

USA.gov is the U.S. government's official web portal to all federal, state and local government web resources and services.